createdAt,value
2022-12-18T00:00:06.109Z,30.40
2022-12-18T00:03:01.986Z,30.40
2022-12-18T00:05:30.577Z,35.40
2022-12-18T00:07:58.510Z,32.70
2022-12-18T00:10:26.721Z,31.40
2022-12-18T00:12:54.718Z,29.60
2022-12-18T00:15:22.723Z,30.20
2022-12-18T00:17:51.255Z,33.60
2022-12-18T00:20:24.773Z,32.00
2022-12-18T00:22:54.084Z,33.60
2022-12-18T00:25:22.341Z,34.60
2022-12-18T00:27:50.287Z,29.20
2022-12-18T00:30:19.517Z,30.10
2022-12-18T00:32:47.429Z,35.40
2022-12-18T00:35:15.307Z,35.00
2022-12-18T00:37:43.766Z,43.30
2022-12-18T00:40:13.588Z,36.90
2022-12-18T00:42:56.676Z,33.90
2022-12-18T00:45:27.445Z,32.40
2022-12-18T00:47:56.736Z,33.10
2022-12-18T00:50:26.174Z,28.50
2022-12-18T00:52:54.115Z,34.50
2022-12-18T00:55:21.928Z,30.20
2022-12-18T00:57:52.957Z,32.10
2022-12-18T01:00:21.662Z,33.60
2022-12-18T01:02:49.697Z,32.00
2022-12-18T01:05:18.209Z,35.90
2022-12-18T01:07:46.272Z,35.50
2022-12-18T01:10:14.712Z,26.70
2022-12-18T01:12:42.723Z,32.30
2022-12-18T01:15:13.996Z,30.90
2022-12-18T01:17:42.560Z,27.60
2022-12-18T01:20:13.190Z,26.90
2022-12-18T01:22:41.436Z,33.70
2022-12-18T01:25:09.860Z,29.60
2022-12-18T01:27:38.037Z,30.70
2022-12-18T01:30:06.775Z,37.50
2022-12-18T01:32:34.687Z,40.00
2022-12-18T01:35:04.804Z,40.20
2022-12-18T01:37:32.950Z,43.30
2022-12-18T01:40:01.041Z,39.70
2022-12-18T01:42:29.472Z,37.90
2022-12-18T01:45:06.027Z,36.60
2022-12-18T01:47:50.872Z,40.70
2022-12-18T01:50:23.958Z,40.30
2022-12-18T01:52:59.445Z,36.60
2022-12-18T01:55:32.019Z,27.30
2022-12-18T01:58:01.701Z,36.10
2022-12-18T02:00:30.475Z,42.70
2022-12-18T02:02:58.636Z,38.40
2022-12-18T02:05:48.318Z,44.40
2022-12-18T02:08:25.896Z,36.10
2022-12-18T02:11:23.363Z,34.70
2022-12-18T02:14:21.740Z,34.50
2022-12-18T02:16:57.321Z,39.00
2022-12-18T02:19:45.734Z,30.80
2022-12-18T02:22:30.913Z,32.30
2022-12-18T02:25:17.471Z,42.30
2022-12-18T02:27:50.303Z,35.90
2022-12-18T02:30:20.215Z,40.10
2022-12-18T02:32:54.624Z,42.20
2022-12-18T02:35:30.519Z,37.00
2022-12-18T02:38:00.213Z,41.80
2022-12-18T02:40:31.504Z,32.50
2022-12-18T02:43:11.686Z,33.90
2022-12-18T02:45:55.916Z,28.50
2022-12-18T02:48:29.853Z,28.50
2022-12-18T02:51:24.700Z,31.00
2022-12-18T02:54:03.871Z,39.80
2022-12-18T02:56:40.040Z,42.00
2022-12-18T02:59:16.698Z,40.40
2022-12-18T03:02:03.082Z,41.30
2022-12-18T03:04:49.876Z,43.50
2022-12-18T03:07:39.115Z,38.70
2022-12-18T03:10:14.758Z,38.50
2022-12-18T03:12:51.411Z,37.20
2022-12-18T03:15:31.872Z,30.50
2022-12-18T03:18:24.400Z,37.30
2022-12-18T03:20:57.095Z,29.20
2022-12-18T03:23:29.360Z,35.70
2022-12-18T03:26:07.163Z,29.40
2022-12-18T03:28:43.219Z,44.00
2022-12-18T03:31:15.329Z,40.90
2022-12-18T03:33:55.471Z,45.90
2022-12-18T03:36:28.064Z,36.50
2022-12-18T03:38:56.153Z,36.90
2022-12-18T03:41:34.813Z,36.60
2022-12-18T03:44:51.132Z,28.60
2022-12-18T03:47:45.515Z,30.90
2022-12-18T03:50:20.991Z,33.00
2022-12-18T03:53:38.728Z,31.80
2022-12-18T03:56:09.724Z,40.60
2022-12-18T03:58:43.028Z,45.60
2022-12-18T04:01:32.305Z,41.50
2022-12-18T04:04:03.324Z,38.70
2022-12-18T04:06:37.026Z,37.60
2022-12-18T04:09:06.181Z,34.20
2022-12-18T04:11:37.286Z,31.30
2022-12-18T04:14:07.340Z,31.20
2022-12-18T04:16:35.745Z,32.20
2022-12-18T04:19:06.189Z,35.00
2022-12-18T04:21:39.534Z,38.70
2022-12-18T04:24:07.963Z,32.50
2022-12-18T04:26:36.586Z,39.10
2022-12-18T04:29:31.299Z,39.70
2022-12-18T04:31:59.344Z,34.90
2022-12-18T04:34:27.666Z,43.70
2022-12-18T04:36:56.182Z,34.50
2022-12-18T04:39:25.333Z,35.90
2022-12-18T04:41:55.484Z,42.50
2022-12-18T04:44:23.975Z,34.80
2022-12-18T04:46:51.914Z,34.50
2022-12-18T04:49:20.280Z,30.70
2022-12-18T04:51:48.580Z,32.30
2022-12-18T04:54:17.083Z,39.40
2022-12-18T04:56:44.944Z,36.20
2022-12-18T04:59:13.237Z,32.00
2022-12-18T05:01:41.420Z,29.50
2022-12-18T05:04:10.027Z,29.50
2022-12-18T05:06:38.464Z,35.60
2022-12-18T05:09:06.540Z,36.20
2022-12-18T05:11:34.701Z,31.00
2022-12-18T05:14:03.200Z,39.40
2022-12-18T05:16:31.248Z,40.90
2022-12-18T05:18:59.077Z,39.90
2022-12-18T05:21:27.641Z,42.00
2022-12-18T05:23:55.542Z,40.90
2022-12-18T05:26:24.252Z,37.20
2022-12-18T05:28:52.744Z,33.00
2022-12-18T05:31:20.764Z,34.50
2022-12-18T05:33:48.685Z,37.70
2022-12-18T05:36:17.448Z,31.90
2022-12-18T05:38:45.294Z,37.20
2022-12-18T05:41:13.173Z,36.50
2022-12-18T05:43:42.632Z,36.30
2022-12-18T05:46:16.254Z,36.90
2022-12-18T05:48:45.862Z,40.20
2022-12-18T05:51:19.251Z,34.40
2022-12-18T05:53:48.081Z,33.90
2022-12-18T05:56:20.275Z,35.00
2022-12-18T05:58:52.052Z,36.10
2022-12-18T06:01:23.116Z,37.10
2022-12-18T06:03:51.508Z,38.30
2022-12-18T06:06:23.863Z,40.60
2022-12-18T06:08:52.391Z,35.50
2022-12-18T06:11:23.829Z,32.00
2022-12-18T06:13:58.138Z,33.70
2022-12-18T06:16:28.342Z,34.20
2022-12-18T06:19:01.104Z,32.10
2022-12-18T06:21:30.846Z,37.50
2022-12-18T06:24:00.652Z,40.10
2022-12-18T06:26:28.877Z,34.00
2022-12-18T06:28:57.378Z,31.30
2022-12-18T06:31:26.734Z,36.10
2022-12-18T06:33:55.025Z,41.60
2022-12-18T06:36:23.362Z,42.60
2022-12-18T06:38:51.250Z,39.40
2022-12-18T06:41:21.408Z,39.00
2022-12-18T06:43:49.989Z,39.60
2022-12-18T06:46:17.899Z,37.80
2022-12-18T06:48:50.000Z,50.10
2022-12-18T06:51:19.919Z,55.30
2022-12-18T06:53:47.862Z,50.70
2022-12-18T06:56:15.781Z,53.90
2022-12-18T06:58:43.921Z,46.20
2022-12-18T07:01:13.060Z,53.10
2022-12-18T07:03:43.566Z,53.80
2022-12-18T07:06:17.541Z,50.40
2022-12-18T07:08:46.659Z,48.60
2022-12-18T07:11:15.804Z,52.50
2022-12-18T07:13:43.952Z,52.20
2022-12-18T07:16:20.804Z,47.00
2022-12-18T07:18:50.531Z,48.00
2022-12-18T07:21:20.772Z,48.70
2022-12-18T07:23:49.475Z,51.00
2022-12-18T07:26:21.407Z,57.10
2022-12-18T07:28:50.059Z,52.10
2022-12-18T07:31:22.102Z,49.20
2022-12-18T07:33:51.608Z,45.80
2022-12-18T07:36:20.820Z,45.40
2022-12-18T07:38:50.322Z,50.20
2022-12-18T07:41:19.767Z,48.00
2022-12-18T07:43:48.346Z,50.60
2022-12-18T07:46:17.846Z,45.00
2022-12-18T07:48:49.340Z,49.10
2022-12-18T07:51:19.765Z,53.00
2022-12-18T07:53:51.304Z,45.60
2022-12-18T07:56:30.099Z,48.40
2022-12-18T07:59:00.287Z,47.70
2022-12-18T08:01:28.711Z,49.20
2022-12-18T08:03:58.396Z,44.00
2022-12-18T08:06:27.184Z,49.30
2022-12-18T08:08:56.786Z,49.60
2022-12-18T08:11:26.888Z,44.20
2022-12-18T08:13:55.056Z,53.40
2022-12-18T08:16:24.911Z,56.80
2022-12-18T08:18:54.243Z,57.80
2022-12-18T08:21:25.267Z,54.90
2022-12-18T08:23:55.559Z,55.40
2022-12-18T08:26:24.379Z,54.00
2022-12-18T08:28:54.766Z,47.00
2022-12-18T08:31:23.649Z,57.80
2022-12-18T08:33:54.473Z,53.30
2022-12-18T08:36:24.921Z,49.60
2022-12-18T08:38:53.919Z,55.00
2022-12-18T08:41:22.644Z,52.70
2022-12-18T08:44:09.976Z,56.20
2022-12-18T08:46:43.385Z,61.20
2022-12-18T08:49:13.048Z,54.90
2022-12-18T08:51:41.460Z,57.20
2022-12-18T08:54:13.894Z,61.10
2022-12-18T08:56:42.268Z,50.40
2022-12-18T08:59:15.813Z,53.40
2022-12-18T09:01:48.532Z,49.50
2022-12-18T09:04:16.667Z,48.60
2022-12-18T09:06:44.647Z,51.20
2022-12-18T09:09:13.073Z,47.40
2022-12-18T09:11:41.016Z,43.80
2022-12-18T09:14:10.982Z,50.50
2022-12-18T09:16:39.382Z,61.30
2022-12-18T09:19:07.430Z,50.80
2022-12-18T09:21:37.211Z,58.50
2022-12-18T09:24:09.101Z,57.20
2022-12-18T09:26:37.991Z,50.80
2022-12-18T09:29:08.586Z,58.00
2022-12-18T09:31:38.017Z,57.90
2022-12-18T09:34:07.110Z,60.00
2022-12-18T09:36:35.375Z,55.00
2022-12-18T09:39:08.085Z,48.90
2022-12-18T09:41:48.627Z,49.70
2022-12-18T09:44:30.962Z,52.60
2022-12-18T09:47:10.669Z,45.80
2022-12-18T09:49:44.042Z,58.50
2022-12-18T09:52:41.089Z,49.90
2022-12-18T09:55:42.122Z,50.10
2022-12-18T09:58:30.243Z,49.10
2022-12-18T10:00:58.319Z,51.10
2022-12-18T10:03:27.765Z,48.10
2022-12-18T10:06:14.888Z,48.40
2022-12-18T10:09:01.793Z,50.80
2022-12-18T10:11:35.868Z,47.60
2022-12-18T10:14:31.793Z,43.00
2022-12-18T10:17:26.253Z,45.80
2022-12-18T10:20:00.707Z,48.50
2022-12-18T10:22:43.238Z,44.70
2022-12-18T10:25:36.319Z,47.00
2022-12-18T10:28:19.051Z,45.10
2022-12-18T10:30:47.766Z,54.00
2022-12-18T10:33:22.296Z,61.90
2022-12-18T10:35:52.116Z,50.30
2022-12-18T10:38:20.376Z,47.80
2022-12-18T10:40:55.538Z,45.50
2022-12-18T10:43:35.002Z,43.80
2022-12-18T10:46:06.794Z,50.50
2022-12-18T10:48:43.382Z,47.70
2022-12-18T10:51:22.200Z,43.00
2022-12-18T10:54:30.542Z,45.80
2022-12-18T10:57:29.591Z,38.60
2022-12-18T11:00:02.051Z,45.50
2022-12-18T11:02:38.980Z,45.90
2022-12-18T11:05:38.145Z,49.50
2022-12-18T11:08:07.217Z,45.00
2022-12-18T11:10:39.032Z,45.90
2022-12-18T11:13:26.145Z,46.40
2022-12-18T11:15:54.424Z,41.10
2022-12-18T11:18:33.784Z,45.80
2022-12-18T11:21:10.991Z,40.00
2022-12-18T11:23:55.034Z,42.10
2022-12-18T11:26:36.964Z,35.00
2022-12-18T11:29:24.893Z,50.50
2022-12-18T11:31:57.076Z,44.10
2022-12-18T11:34:33.093Z,47.80
2022-12-18T11:37:04.104Z,54.90
2022-12-18T11:39:37.875Z,46.00
2022-12-18T11:42:25.553Z,46.70
2022-12-18T11:45:02.533Z,49.70
2022-12-18T11:47:43.322Z,55.40
2022-12-18T11:50:19.690Z,45.30
2022-12-18T11:52:51.499Z,40.80
2022-12-18T11:55:38.191Z,41.70
2022-12-18T11:58:34.097Z,38.30
2022-12-18T12:01:24.353Z,45.00
2022-12-18T12:04:17.039Z,44.80
2022-12-18T12:07:03.599Z,50.60
2022-12-18T12:10:04.970Z,48.10
2022-12-18T12:12:48.999Z,49.50
2022-12-18T12:15:26.648Z,50.10
2022-12-18T12:18:45.890Z,46.20
2022-12-18T12:21:55.851Z,41.90
2022-12-18T12:24:48.183Z,49.70
2022-12-18T12:27:29.539Z,53.40
2022-12-18T12:30:30.732Z,48.60
2022-12-18T12:33:16.962Z,44.50
2022-12-18T12:36:07.808Z,48.30
2022-12-18T12:38:49.815Z,51.40
2022-12-18T12:41:43.755Z,53.90
2022-12-18T12:44:27.764Z,49.00
2022-12-18T12:47:00.425Z,48.80
2022-12-18T12:49:37.644Z,45.90
2022-12-18T12:52:15.573Z,45.00
2022-12-18T12:54:45.783Z,50.50
2022-12-18T12:57:23.210Z,54.20
2022-12-18T12:59:58.271Z,47.50
2022-12-18T13:02:58.007Z,59.60
2022-12-18T13:05:57.502Z,49.30
2022-12-18T13:08:33.398Z,49.40
2022-12-18T13:11:22.786Z,49.90
2022-12-18T13:13:53.633Z,57.90
2022-12-18T13:16:25.401Z,51.40
2022-12-18T13:18:55.654Z,46.40
2022-12-18T13:21:30.321Z,56.90
2022-12-18T13:24:17.059Z,56.50
2022-12-18T13:26:44.848Z,61.40
2022-12-18T13:29:43.826Z,54.50
2022-12-18T13:32:25.046Z,54.50
2022-12-18T13:35:19.710Z,49.20
2022-12-18T13:37:56.004Z,51.50
2022-12-18T13:40:39.553Z,56.40
2022-12-18T13:43:22.867Z,50.90
2022-12-18T13:46:17.785Z,48.40
2022-12-18T13:49:07.715Z,52.30
2022-12-18T13:51:36.908Z,50.30
2022-12-18T13:54:33.716Z,52.20
2022-12-18T13:57:03.280Z,50.20
2022-12-18T13:59:37.553Z,44.20
2022-12-18T14:02:23.111Z,52.50
2022-12-18T14:04:52.988Z,58.30
2022-12-18T14:07:26.712Z,63.70
2022-12-18T14:10:18.793Z,59.70
2022-12-18T14:13:00.881Z,56.70
2022-12-18T14:15:35.041Z,55.00
2022-12-18T14:18:23.898Z,61.30
2022-12-18T14:20:57.949Z,58.40
2022-12-18T14:23:43.531Z,50.00
2022-12-18T14:26:26.540Z,50.70
2022-12-18T14:28:55.763Z,51.40
2022-12-18T14:31:29.663Z,42.00
2022-12-18T14:33:57.847Z,40.90
2022-12-18T14:36:28.529Z,55.40
2022-12-18T14:38:59.382Z,54.70
2022-12-18T14:41:28.870Z,56.30
2022-12-18T14:44:07.450Z,57.30
2022-12-18T14:46:41.058Z,59.30
2022-12-18T14:49:32.600Z,55.60
2022-12-18T14:52:20.962Z,50.20
2022-12-18T14:54:49.859Z,58.20
2022-12-18T14:57:36.709Z,50.00
2022-12-18T15:00:16.265Z,44.00
2022-12-18T15:02:46.598Z,45.60
2022-12-18T15:05:14.520Z,48.30
2022-12-18T15:07:44.773Z,49.10
2022-12-18T15:10:23.298Z,54.60
2022-12-18T15:12:57.797Z,47.50
2022-12-18T15:15:35.500Z,59.80
2022-12-18T15:18:13.723Z,50.90
2022-12-18T15:21:12.418Z,53.40
2022-12-18T15:23:54.462Z,69.90
2022-12-18T15:26:23.578Z,59.80
2022-12-18T15:28:54.014Z,58.70
2022-12-18T15:31:33.708Z,58.60
2022-12-18T15:34:12.495Z,59.60
2022-12-18T15:36:41.357Z,56.00
2022-12-18T15:39:13.275Z,58.60
2022-12-18T15:42:02.089Z,39.10
2022-12-18T15:44:30.714Z,38.00
2022-12-18T15:46:58.920Z,45.50
2022-12-18T15:49:27.084Z,52.80
2022-12-18T15:52:01.242Z,56.80
2022-12-18T15:54:48.369Z,55.00
2022-12-18T15:57:25.841Z,43.40
2022-12-18T15:59:59.613Z,56.80
2022-12-18T16:02:29.787Z,55.10
2022-12-18T16:04:58.413Z,50.60
2022-12-18T16:07:29.165Z,45.40
2022-12-18T16:10:00.300Z,65.60
2022-12-18T16:12:30.486Z,63.80
2022-12-18T16:14:58.696Z,60.10
2022-12-18T16:17:27.119Z,61.80
2022-12-18T16:19:55.353Z,56.00
2022-12-18T16:22:30.612Z,47.00
2022-12-18T16:24:59.097Z,53.10
2022-12-18T16:27:27.232Z,56.50
2022-12-18T16:29:55.381Z,47.60
2022-12-18T16:32:24.502Z,54.30
2022-12-18T16:34:52.788Z,49.10
2022-12-18T16:37:31.272Z,54.00
2022-12-18T16:39:59.755Z,44.50
2022-12-18T16:42:27.912Z,35.90
2022-12-18T16:44:58.004Z,45.90
2022-12-18T16:47:26.353Z,38.70
2022-12-18T16:49:54.484Z,44.10
2022-12-18T16:52:22.735Z,50.70
2022-12-18T16:54:50.942Z,47.00
2022-12-18T16:57:21.115Z,48.40
2022-12-18T16:59:53.344Z,56.90
2022-12-18T17:02:25.774Z,53.90
2022-12-18T17:05:00.385Z,51.90
2022-12-18T17:07:28.551Z,51.50
2022-12-18T17:09:57.092Z,55.10
2022-12-18T17:12:25.265Z,52.50
2022-12-18T17:14:53.285Z,45.60
2022-12-18T17:17:23.048Z,47.00
2022-12-18T17:19:52.856Z,39.00
2022-12-18T17:22:23.268Z,51.10
2022-12-18T17:24:51.594Z,56.20
2022-12-18T17:27:19.757Z,52.70
2022-12-18T17:29:48.963Z,59.80
2022-12-18T17:32:18.483Z,52.80
2022-12-18T17:34:47.137Z,55.50
2022-12-18T17:37:15.748Z,42.90
2022-12-18T17:39:43.789Z,43.20
2022-12-18T17:42:15.684Z,49.60
2022-12-18T17:44:45.483Z,50.40
2022-12-18T17:47:15.531Z,53.20
2022-12-18T17:49:43.499Z,52.40
2022-12-18T17:52:11.445Z,46.40
2022-12-18T17:54:42.349Z,47.40
2022-12-18T17:57:10.669Z,47.10
2022-12-18T17:59:38.862Z,48.90
2022-12-18T18:02:07.537Z,48.70
2022-12-18T18:04:36.447Z,51.30
2022-12-18T18:07:04.536Z,55.60
2022-12-18T18:09:32.889Z,47.80
2022-12-18T18:12:19.289Z,45.10
2022-12-18T18:14:47.997Z,49.00
2022-12-18T18:17:15.985Z,43.20
2022-12-18T18:19:47.431Z,45.10
2022-12-18T18:22:19.610Z,44.20
2022-12-18T18:24:48.193Z,38.40
2022-12-18T18:27:16.423Z,43.00
2022-12-18T18:29:45.089Z,25.00
2022-12-18T18:32:12.907Z,53.70
2022-12-18T18:34:40.945Z,41.00
2022-12-18T18:37:10.854Z,50.30
2022-12-18T18:39:38.853Z,44.20
2022-12-18T18:42:07.075Z,45.80
2022-12-18T18:44:35.573Z,36.30
2022-12-18T18:47:05.628Z,48.60
2022-12-18T18:49:38.057Z,61.90
2022-12-18T18:52:07.498Z,59.80
2022-12-18T18:54:35.572Z,54.00
2022-12-18T18:57:20.465Z,60.00
2022-12-18T18:59:51.656Z,68.00
2022-12-18T19:02:20.040Z,87.60
2022-12-18T19:04:48.110Z,60.90
2022-12-18T19:07:29.346Z,37.80
2022-12-18T19:10:04.594Z,70.60
2022-12-18T19:12:54.903Z,63.30
2022-12-18T19:15:23.598Z,36.50
2022-12-18T19:17:51.478Z,67.30
2022-12-18T19:20:19.653Z,56.60
2022-12-18T19:22:55.282Z,60.50
2022-12-18T19:25:37.163Z,37.80
2022-12-18T19:28:15.818Z,45.30
2022-12-18T19:30:58.657Z,39.40
2022-12-18T19:33:45.928Z,45.60
2022-12-18T19:36:17.727Z,47.80
2022-12-18T19:38:46.894Z,55.00
2022-12-18T19:41:16.295Z,35.00
2022-12-18T19:43:45.026Z,38.10
2022-12-18T19:46:16.327Z,36.30
2022-12-18T19:48:45.365Z,35.70
2022-12-18T19:51:19.678Z,38.80
2022-12-18T19:53:48.251Z,36.20
2022-12-18T19:56:19.950Z,26.90
2022-12-18T19:58:49.162Z,33.50
2022-12-18T20:01:20.243Z,39.00
2022-12-18T20:03:52.200Z,32.90
2022-12-18T20:06:25.081Z,30.70
2022-12-18T20:08:57.969Z,30.80
2022-12-18T20:11:33.897Z,40.80
2022-12-18T20:14:07.027Z,41.30
2022-12-18T20:16:35.787Z,40.70
2022-12-18T20:19:03.974Z,46.80
2022-12-18T20:21:32.101Z,44.60
2022-12-18T20:24:01.547Z,42.40
2022-12-18T20:26:29.706Z,43.00
2022-12-18T20:28:58.433Z,26.40
2022-12-18T20:31:26.870Z,24.40
2022-12-18T20:34:00.173Z,34.50
2022-12-18T20:36:30.391Z,37.90
2022-12-18T20:39:01.679Z,32.80
2022-12-18T20:41:38.099Z,29.10
2022-12-18T20:44:22.236Z,27.90
2022-12-18T20:46:54.708Z,33.60
2022-12-18T20:49:24.979Z,31.70
2022-12-18T20:51:56.449Z,28.30
2022-12-18T20:54:29.256Z,36.50
2022-12-18T20:56:57.353Z,33.40
2022-12-18T20:59:26.085Z,38.30
2022-12-18T21:01:54.982Z,36.10
2022-12-18T21:04:24.442Z,41.30
2022-12-18T21:07:00.524Z,38.10
2022-12-18T21:09:37.436Z,22.50
2022-12-18T21:12:40.267Z,38.90
2022-12-18T21:15:12.192Z,32.70
2022-12-18T21:17:44.049Z,28.70
2022-12-18T21:20:17.362Z,33.40
2022-12-18T21:22:47.112Z,17.40
2022-12-18T21:25:15.255Z,27.50
2022-12-18T21:27:43.106Z,34.10
2022-12-18T21:30:11.810Z,30.40
2022-12-18T21:32:40.113Z,28.90
2022-12-18T21:35:08.464Z,31.00
2022-12-18T21:37:36.480Z,34.40
2022-12-18T21:40:06.238Z,29.20
2022-12-18T21:42:52.973Z,28.40
2022-12-18T21:45:21.253Z,31.00
2022-12-18T21:47:49.209Z,31.60
2022-12-18T21:50:17.182Z,28.30
2022-12-18T21:52:45.463Z,29.70
2022-12-18T21:55:13.283Z,18.60
2022-12-18T21:57:41.217Z,30.40
2022-12-18T22:00:19.002Z,27.90
2022-12-18T22:03:07.385Z,19.20
2022-12-18T22:05:37.682Z,31.00
2022-12-18T22:08:07.055Z,28.80
2022-12-18T22:10:36.040Z,19.90
2022-12-18T22:13:05.809Z,28.10
2022-12-18T22:15:33.760Z,24.60
2022-12-18T22:18:02.158Z,26.80
2022-12-18T22:20:30.768Z,26.10
2022-12-18T22:23:04.258Z,30.90
2022-12-18T22:25:37.273Z,29.40
2022-12-18T22:28:26.504Z,26.20
2022-12-18T22:30:59.706Z,30.00
2022-12-18T22:33:28.526Z,31.20
2022-12-18T22:35:56.668Z,23.50
2022-12-18T22:38:26.364Z,31.90
2022-12-18T22:40:54.942Z,28.50
2022-12-18T22:43:22.753Z,32.60
2022-12-18T22:45:51.159Z,24.20
2022-12-18T22:48:19.372Z,19.80
2022-12-18T22:50:47.275Z,27.40
2022-12-18T22:53:17.679Z,25.20
2022-12-18T22:55:45.602Z,14.40
2022-12-18T22:58:13.558Z,26.90
2022-12-18T23:00:42.030Z,27.70
2022-12-18T23:03:10.366Z,28.20
2022-12-18T23:05:38.515Z,30.90
2022-12-18T23:08:06.511Z,28.10
2022-12-18T23:10:37.979Z,27.00
2022-12-18T23:13:05.895Z,33.60
2022-12-18T23:15:34.438Z,31.70
2022-12-18T23:18:02.323Z,31.40
2022-12-18T23:20:30.738Z,30.10
2022-12-18T23:22:58.973Z,33.00
2022-12-18T23:25:26.915Z,28.10
2022-12-18T23:27:54.919Z,22.20
2022-12-18T23:30:22.988Z,28.30
2022-12-18T23:32:51.179Z,27.70
2022-12-18T23:35:19.515Z,28.80
2022-12-18T23:38:04.471Z,30.20
2022-12-18T23:40:32.703Z,31.60
2022-12-18T23:43:00.995Z,17.70
2022-12-18T23:45:28.911Z,25.20
2022-12-18T23:47:57.270Z,29.10
2022-12-18T23:50:29.727Z,28.10
2022-12-18T23:53:05.186Z,27.30
2022-12-18T23:55:39.995Z,25.00
2022-12-18T23:58:16.084Z,25.20
